Time;durP1;ratioP1;P1;durP2;ratioP2;P2;SDS_P1;SDS_P2;PMS_P1;PMS_P2;Temp;Humidity;BMP_temperature;BMP_pressure;BME280_temperature;BME280_humidity;BME280_pressure;Samples;Min_cycle;Max_cycle;Signal;HPM_P1;HPM_P2
2024/02/08 00:01:40;;;;;;;13.33;6.83;;;;;;;;;;5022278;28;20660;-73
2024/02/08 00:04:05;;;;;;;25.90;7.50;;;;;;;;;;5046028;28;20645;-74
2024/02/08 00:06:31;;;;;;;21.67;7.20;;;;;;;;;;5028224;28;20235;-74
2024/02/08 00:09:00;;;;;;;18.27;7.57;;;;;;;;;;5024575;28;20720;-74
2024/02/08 00:11:27;;;;;;;17.30;7.00;;;;;;;;;;5027246;28;20299;-74
2024/02/08 00:13:52;;;;;;;18.20;7.67;;;;;;;;;;5036808;28;20208;-74
2024/02/08 00:16:18;;;;;;;16.13;7.40;;;;;;;;;;5032136;28;20622;-74
2024/02/08 00:18:44;;;;;;;19.47;6.87;;;;;;;;;;5028145;28;20238;-74
2024/02/08 00:21:10;;;;;;;16.47;7.37;;;;;;;;;;5033604;28;20232;-74
2024/02/08 00:23:36;;;;;;;24.73;8.03;;;;;;;;;;5039212;28;20224;-73
2024/02/08 00:26:02;;;;;;;24.40;7.10;;;;;;;;;;5037799;28;20287;-73
2024/02/08 00:28:28;;;;;;;16.83;7.23;;;;;;;;;;5039941;28;20248;-73
2024/02/08 00:30:54;;;;;;;21.00;7.57;;;;;;;;;;5032007;28;20186;-73
2024/02/08 00:33:20;;;;;;;17.30;6.90;;;;;;;;;;5026462;28;20201;-73
2024/02/08 00:35:45;;;;;;;17.23;7.60;;;;;;;;;;5032426;28;20194;-74
2024/02/08 00:38:11;;;;;;;17.73;7.50;;;;;;;;;;5041533;28;20684;-74
2024/02/08 00:40:36;;;;;;;16.80;7.27;;;;;;;;;;5033837;28;20192;-74
2024/02/08 00:43:06;;;;;;;15.47;7.03;;;;;;;;;;5032542;28;20198;-73
2024/02/08 00:45:35;;;;;;;16.00;6.93;;;;;;;;;;5027417;28;20684;-73
2024/02/08 00:48:01;;;;;;;13.63;6.67;;;;;;;;;;5030463;28;20266;-73
2024/02/08 00:50:26;;;;;;;14.73;7.03;;;;;;;;;;5033167;28;20632;-73
2024/02/08 00:52:52;;;;;;;15.17;6.23;;;;;;;;;;5035415;28;20229;-73
2024/02/08 00:55:21;;;;;;;18.10;6.97;;;;;;;;;;5033000;28;20273;-73
2024/02/08 00:57:47;;;;;;;20.00;7.00;;;;;;;;;;5031357;28;20189;-74
2024/02/08 01:00:13;;;;;;;18.80;6.37;;;;;;;;;;5035638;28;20193;-73
2024/02/08 01:02:39;;;;;;;12.87;6.57;;;;;;;;;;5024453;28;20256;-73
2024/02/08 01:05:05;;;;;;;13.43;6.57;;;;;;;;;;5034734;28;20753;-73
2024/02/08 01:07:34;;;;;;;13.40;6.73;;;;;;;;;;5034674;28;20204;-74
2024/02/08 01:10:00;;;;;;;20.97;7.57;;;;;;;;;;5038020;28;20193;-74
2024/02/08 01:12:26;;;;;;;11.77;6.60;;;;;;;;;;5036796;28;20217;-74
2024/02/08 01:14:52;;;;;;;16.40;6.63;;;;;;;;;;5036237;28;20279;-74
2024/02/08 01:17:18;;;;;;;13.17;5.80;;;;;;;;;;5027243;28;20306;-74
2024/02/08 01:19:44;;;;;;;16.20;7.67;;;;;;;;;;5029112;28;20213;-75
2024/02/08 01:22:11;;;;;;;19.00;6.73;;;;;;;;;;5032711;28;20304;-74
2024/02/08 01:24:37;;;;;;;17.10;7.03;;;;;;;;;;5043383;28;20193;-75
2024/02/08 01:27:04;;;;;;;13.07;6.83;;;;;;;;;;5035524;28;20194;-73
2024/02/08 01:29:30;;;;;;;18.67;6.50;;;;;;;;;;5045261;28;20194;-73
2024/02/08 01:31:55;;;;;;;16.67;6.50;;;;;;;;;;5038726;28;20320;-74
2024/02/08 01:34:25;;;;;;;17.93;6.13;;;;;;;;;;5031842;28;20209;-73
2024/02/08 01:36:53;;;;;;;16.60;7.10;;;;;;;;;;5034098;28;20201;-74
2024/02/08 01:39:25;;;;;;;20.30;6.53;;;;;;;;;;5036072;28;20507;-74
2024/02/08 01:41:53;;;;;;;14.97;6.63;;;;;;;;;;5012767;28;20209;-74
2024/02/08 01:44:21;;;;;;;17.30;7.27;;;;;;;;;;5043865;28;20620;-74
2024/02/08 01:46:48;;;;;;;14.83;7.00;;;;;;;;;;5032017;28;20194;-74
2024/02/08 01:49:13;;;;;;;17.07;6.87;;;;;;;;;;5041627;28;20547;-74
2024/02/08 01:51:39;;;;;;;17.93;7.13;;;;;;;;;;5035644;28;20201;-74
2024/02/08 01:54:08;;;;;;;19.27;7.03;;;;;;;;;;5041258;28;21526;-74
2024/02/08 01:56:36;;;;;;;20.17;6.80;;;;;;;;;;5043196;28;20537;-74
2024/02/08 01:59:02;;;;;;;18.17;7.13;;;;;;;;;;5038348;28;20518;-74
2024/02/08 02:01:27;;;;;;;20.83;7.70;;;;;;;;;;5041460;28;20221;-74
2024/02/08 02:03:52;;;;;;;18.67;7.90;;;;;;;;;;5047426;28;20189;-74
2024/02/08 02:06:18;;;;;;;17.80;7.00;;;;;;;;;;5032832;28;20593;-74
2024/02/08 02:08:53;;;;;;;15.43;6.57;;;;;;;;;;5024527;28;20256;-75
2024/02/08 02:11:41;;;;;;;24.97;8.10;;;;;;;;;;5032350;28;20193;-74
2024/02/08 02:14:08;;;;;;;19.43;7.80;;;;;;;;;;5029381;28;20201;-74
2024/02/08 02:16:33;;;;;;;13.57;7.60;;;;;;;;;;5033424;28;20544;-74
2024/02/08 02:18:59;;;;;;;19.30;7.63;;;;;;;;;;5039110;28;20287;-73
2024/02/08 02:21:27;;;;;;;14.10;7.47;;;;;;;;;;5036638;28;20217;-74
2024/02/08 02:23:53;;;;;;;20.13;7.77;;;;;;;;;;5034156;28;20229;-74
2024/02/08 02:26:19;;;;;;;21.90;8.30;;;;;;;;;;5030510;28;20206;-74
2024/02/08 02:28:46;;;;;;;20.70;7.77;;;;;;;;;;5025597;28;20186;-74
2024/02/08 02:31:13;;;;;;;19.37;7.40;;;;;;;;;;5039642;28;20181;-74
2024/02/08 02:33:40;;;;;;;22.23;7.93;;;;;;;;;;5034670;28;20228;-74
2024/02/08 02:36:07;;;;;;;19.57;8.00;;;;;;;;;;5029150;28;20257;-74
2024/02/08 02:38:35;;;;;;;18.33;7.40;;;;;;;;;;5031434;28;20194;-74
2024/02/08 02:41:06;;;;;;;16.13;7.40;;;;;;;;;;5038293;28;20688;-74
2024/02/08 02:43:34;;;;;;;19.47;7.63;;;;;;;;;;5037546;28;20245;-74
2024/02/08 02:45:59;;;;;;;17.07;7.33;;;;;;;;;;5033417;28;20189;-74
2024/02/08 02:48:25;;;;;;;15.57;7.30;;;;;;;;;;5034915;28;20193;-74
2024/02/08 02:50:51;;;;;;;20.43;6.90;;;;;;;;;;5023570;28;20186;-74
2024/02/08 02:53:18;;;;;;;17.33;7.63;;;;;;;;;;5037789;28;20682;-74
2024/02/08 02:55:44;;;;;;;17.50;7.47;;;;;;;;;;5038109;28;20193;-74
2024/02/08 02:58:12;;;;;;;21.47;7.80;;;;;;;;;;5035039;28;20539;-74
2024/02/08 03:00:38;;;;;;;18.50;8.37;;;;;;;;;;5032350;28;20656;-74
2024/02/08 03:03:08;;;;;;;23.13;9.13;;;;;;;;;;5049772;28;20226;-74
2024/02/08 03:05:46;;;;;;;16.10;8.80;;;;;;;;;;5041621;28;20471;-74
2024/02/08 03:08:11;;;;;;;20.23;8.63;;;;;;;;;;5043293;28;20204;-74
2024/02/08 03:10:42;;;;;;;22.13;9.77;;;;;;;;;;5028041;28;20198;-74
2024/02/08 03:13:10;;;;;;;23.30;9.17;;;;;;;;;;5030477;28;20193;-73
2024/02/08 03:15:39;;;;;;;24.73;10.80;;;;;;;;;;5035162;28;20204;-73
2024/02/08 03:18:04;;;;;;;19.77;9.23;;;;;;;;;;5040540;28;20657;-74
2024/02/08 03:20:30;;;;;;;24.03;10.90;;;;;;;;;;5048253;28;20286;-74
2024/02/08 03:22:59;;;;;;;21.63;11.00;;;;;;;;;;5034015;28;20228;-74
2024/02/08 03:25:25;;;;;;;23.23;11.07;;;;;;;;;;5032075;28;20276;-74
2024/02/08 03:27:52;;;;;;;25.53;10.97;;;;;;;;;;5032022;28;20279;-73
2024/02/08 03:30:30;;;;;;;25.73;10.70;;;;;;;;;;5038427;28;20202;-74
2024/02/08 03:32:57;;;;;;;19.37;9.57;;;;;;;;;;5031221;28;20192;-73
2024/02/08 03:35:36;;;;;;;27.33;10.87;;;;;;;;;;5024158;28;20281;-73
2024/02/08 03:38:02;;;;;;;22.37;10.10;;;;;;;;;;5034002;28;20272;-73
2024/02/08 03:40:32;;;;;;;26.03;12.53;;;;;;;;;;5035587;28;20757;-74
2024/02/08 03:43:01;;;;;;;23.30;12.50;;;;;;;;;;5033459;28;20206;-74
2024/02/08 03:45:27;;;;;;;27.60;12.60;;;;;;;;;;5029782;28;20204;-74
2024/02/08 03:47:59;;;;;;;38.30;13.63;;;;;;;;;;5042749;28;20212;-73
2024/02/08 03:50:26;;;;;;;20.80;12.20;;;;;;;;;;5036213;28;20197;-73
2024/02/08 03:52:52;;;;;;;27.97;11.77;;;;;;;;;;5042802;28;20644;-73
2024/02/08 03:55:26;;;;;;;24.50;12.13;;;;;;;;;;5036846;28;20204;-73
2024/02/08 03:58:00;;;;;;;33.87;13.33;;;;;;;;;;5036792;28;20189;-73
2024/02/08 04:00:29;;;;;;;27.57;13.47;;;;;;;;;;5042907;28;20288;-73
2024/02/08 04:03:01;;;;;;;29.80;13.47;;;;;;;;;;5042660;28;20224;-73
2024/02/08 04:54:43;;;;;;;28.03;10.37;;;;;;;;;;5038784;28;20193;-73
2024/02/08 04:57:09;;;;;;;26.33;10.67;;;;;;;;;;5036282;28;20185;-73
2024/02/08 04:59:42;;;;;;;22.30;10.77;;;;;;;;;;5035993;28;20680;-73
2024/02/08 05:02:09;;;;;;;24.50;9.77;;;;;;;;;;5035963;28;20210;-73
2024/02/08 05:04:38;;;;;;;25.03;9.37;;;;;;;;;;5031906;28;20198;-73
2024/02/08 05:07:04;;;;;;;22.80;8.97;;;;;;;;;;5046987;28;20201;-73
2024/02/08 05:09:30;;;;;;;21.20;8.93;;;;;;;;;;5038536;28;20656;-73
2024/02/08 05:11:56;;;;;;;24.97;8.87;;;;;;;;;;5046084;28;20181;-73
2024/02/08 05:14:22;;;;;;;14.77;8.80;;;;;;;;;;5038778;28;20194;-73
2024/02/08 05:16:54;;;;;;;19.33;8.40;;;;;;;;;;5037570;28;20591;-73
2024/02/08 05:19:23;;;;;;;12.70;7.40;;;;;;;;;;5023442;28;20778;-73
2024/02/08 05:22:02;;;;;;;16.70;7.53;;;;;;;;;;5034828;28;20214;-73
2024/02/08 05:24:30;;;;;;;19.83;8.50;;;;;;;;;;5038990;28;20498;-73
2024/02/08 05:26:56;;;;;;;16.60;8.07;;;;;;;;;;5037372;28;20197;-73
2024/02/08 05:29:21;;;;;;;18.17;8.60;;;;;;;;;;5046382;28;20623;-73
2024/02/08 05:31:48;;;;;;;21.73;9.50;;;;;;;;;;5034908;28;20197;-73
2024/02/08 05:34:15;;;;;;;20.80;9.23;;;;;;;;;;5038744;28;21327;-73
2024/02/08 05:36:44;;;;;;;19.60;8.80;;;;;;;;;;5037624;28;20720;-73
2024/02/08 05:39:10;;;;;;;25.13;8.83;;;;;;;;;;5037297;28;20312;-73
2024/02/08 05:41:36;;;;;;;16.37;8.70;;;;;;;;;;5039604;28;20208;-73
2024/02/08 05:44:12;;;;;;;21.37;8.67;;;;;;;;;;5034834;28;20194;-73
2024/02/08 05:46:38;;;;;;;14.47;8.30;;;;;;;;;;5038793;28;20189;-73
2024/02/08 05:49:05;;;;;;;20.20;9.43;;;;;;;;;;5034678;28;20190;-73
2024/02/08 05:51:32;;;;;;;19.17;8.03;;;;;;;;;;5037804;28;20289;-73
2024/02/08 05:54:05;;;;;;;21.00;9.07;;;;;;;;;;5036963;28;20252;-73
2024/02/08 05:56:33;;;;;;;18.73;9.00;;;;;;;;;;5042465;28;20650;-73
2024/02/08 05:59:05;;;;;;;17.67;8.63;;;;;;;;;;5053024;28;20198;-73
2024/02/08 06:01:36;;;;;;;18.13;8.83;;;;;;;;;;5029414;28;20702;-75
2024/02/08 06:04:03;;;;;;;17.40;9.20;;;;;;;;;;5033774;28;20194;-75
2024/02/08 06:06:38;;;;;;;15.50;8.77;;;;;;;;;;5039827;28;20194;-75
2024/02/08 06:09:33;;;;;;;24.73;9.60;;;;;;;;;;5038216;28;20189;-74
2024/02/08 06:12:08;;;;;;;23.37;9.17;;;;;;;;;;5034245;28;20190;-75
2024/02/08 06:14:38;;;;;;;18.13;9.20;;;;;;;;;;5035629;28;20182;-72
2024/02/08 06:17:07;;;;;;;25.33;9.53;;;;;;;;;;5030423;28;20205;-72
2024/02/08 06:19:52;;;;;;;22.07;8.40;;;;;;;;;;5037523;28;20225;-74
2024/02/08 06:22:22;;;;;;;23.17;9.27;;;;;;;;;;5037663;28;20217;-73
2024/02/08 06:24:48;;;;;;;24.50;8.60;;;;;;;;;;5032503;28;20236;-73
2024/02/08 06:27:14;;;;;;;21.50;9.10;;;;;;;;;;5027976;28;20190;-73
2024/02/08 06:29:47;;;;;;;18.67;8.43;;;;;;;;;;5036261;28;20559;-73
2024/02/08 06:32:23;;;;;;;19.60;8.87;;;;;;;;;;5039773;28;20221;-73
2024/02/08 06:35:11;;;;;;;24.43;9.17;;;;;;;;;;5037063;28;20196;-73
2024/02/08 06:37:44;;;;;;;20.37;9.03;;;;;;;;;;5044717;28;20193;-73
2024/02/08 06:40:36;;;;;;;19.17;8.90;;;;;;;;;;5034012;28;20190;-74
2024/02/08 06:43:26;;;;;;;18.47;8.10;;;;;;;;;;5038820;28;20646;-75
2024/02/08 06:46:09;;;;;;;27.17;9.53;;;;;;;;;;5034898;28;20254;-75
2024/02/08 06:48:48;;;;;;;21.63;8.20;;;;;;;;;;5037294;28;20221;-75
2024/02/08 07:37:46;;;;;;;19.50;8.47;;;;;;;;;;5033000;28;20201;-73
2024/02/08 07:40:25;;;;;;;16.77;8.33;;;;;;;;;;5043287;28;20665;-73
2024/02/08 07:45:45;;;;;;;27.07;9.07;;;;;;;;;;5042101;28;20227;-73
2024/02/08 07:48:13;;;;;;;18.97;8.27;;;;;;;;;;5032816;28;20513;-73
2024/02/08 07:50:45;;;;;;;22.57;8.20;;;;;;;;;;5049268;28;20189;-73
2024/02/08 07:53:33;;;;;;;21.00;8.20;;;;;;;;;;5026841;28;20402;-73
2024/02/08 07:56:29;;;;;;;23.07;8.80;;;;;;;;;;5036960;28;20211;-73
2024/02/08 07:59:03;;;;;;;21.20;8.10;;;;;;;;;;5031256;28;20220;-73
2024/02/08 08:01:32;;;;;;;22.87;8.47;;;;;;;;;;5031923;28;20218;-73
2024/02/08 08:03:57;;;;;;;20.03;8.37;;;;;;;;;;5043953;28;20715;-73
2024/02/08 08:06:23;;;;;;;19.47;8.47;;;;;;;;;;5038306;28;20187;-73
2024/02/08 08:08:57;;;;;;;17.00;7.37;;;;;;;;;;5034145;28;20232;-74
2024/02/08 08:11:29;;;;;;;25.53;8.03;;;;;;;;;;5041359;28;20280;-74
2024/02/08 08:18:59;;;;;;;14.73;7.80;;;;;;;;;;5042352;28;20660;-74
2024/02/08 08:21:29;;;;;;;23.47;7.97;;;;;;;;;;5046880;28;20233;-74
2024/02/08 08:24:02;;;;;;;19.00;8.20;;;;;;;;;;5014048;28;20575;-74
2024/02/08 08:26:39;;;;;;;18.50;7.50;;;;;;;;;;5040284;28;20220;-74
2024/02/08 08:29:13;;;;;;;26.53;7.87;;;;;;;;;;5035542;28;20325;-74
2024/02/08 08:31:54;;;;;;;18.10;7.90;;;;;;;;;;5040452;28;20212;-74
2024/02/08 08:37:26;;;;;;;19.13;7.63;;;;;;;;;;5034938;28;20198;-75
2024/02/08 08:40:49;;;;;;;16.93;7.40;;;;;;;;;;5050034;28;20197;-74
2024/02/08 08:42:49;;;;;;;17.90;7.13;;;;;;;;;;5046708;28;20229;-74
2024/02/08 08:45:18;;;;;;;19.13;7.03;;;;;;;;;;5044830;28;20567;-75
2024/02/08 08:47:44;;;;;;;19.57;8.00;;;;;;;;;;5049413;28;20193;-74
2024/02/08 08:50:18;;;;;;;20.30;7.40;;;;;;;;;;5020580;28;20641;-75
2024/02/08 08:52:49;;;;;;;23.20;7.40;;;;;;;;;;5045191;28;20239;-74
2024/02/08 08:55:17;;;;;;;18.03;7.30;;;;;;;;;;5042466;28;20209;-75
2024/02/08 08:57:44;;;;;;;23.20;7.10;;;;;;;;;;5035694;28;20304;-74
2024/02/08 09:00:19;;;;;;;15.03;7.40;;;;;;;;;;5049066;28;20276;-74
2024/02/08 09:02:50;;;;;;;20.67;7.10;;;;;;;;;;5025478;28;20567;-74
2024/02/08 09:05:21;;;;;;;13.67;6.37;;;;;;;;;;5054645;28;20182;-74
2024/02/08 09:07:47;;;;;;;14.07;6.70;;;;;;;;;;5036834;28;20202;-74
2024/02/08 09:10:16;;;;;;;15.87;6.87;;;;;;;;;;5030875;28;20200;-74
2024/02/08 09:12:58;;;;;;;15.67;6.17;;;;;;;;;;5039619;28;20260;-74
2024/02/08 09:15:27;;;;;;;17.77;6.30;;;;;;;;;;5035310;28;20208;-74
2024/02/08 09:17:57;;;;;;;16.87;5.87;;;;;;;;;;5034423;28;20245;-74
2024/02/08 09:20:28;;;;;;;18.33;5.80;;;;;;;;;;5041062;28;20217;-74
2024/02/08 09:22:54;;;;;;;20.30;6.77;;;;;;;;;;5039546;28;20210;-75
2024/02/08 09:25:21;;;;;;;13.77;5.73;;;;;;;;;;5038930;28;20502;-74
2024/02/08 09:27:47;;;;;;;16.63;5.67;;;;;;;;;;5045167;28;20201;-74
2024/02/08 09:30:15;;;;;;;20.07;6.23;;;;;;;;;;5041573;28;20181;-74
2024/02/08 09:32:44;;;;;;;20.43;6.07;;;;;;;;;;5034490;28;20239;-74
2024/02/08 09:35:12;;;;;;;17.47;5.27;;;;;;;;;;5039970;28;20645;-74
2024/02/08 09:37:47;;;;;;;18.60;6.60;;;;;;;;;;5033114;28;20597;-74
2024/02/08 09:40:33;;;;;;;20.10;6.10;;;;;;;;;;5047149;28;20196;-74
2024/02/08 09:43:11;;;;;;;21.83;6.00;;;;;;;;;;5042328;28;20220;-75
2024/02/08 09:48:11;;;;;;;20.73;5.73;;;;;;;;;;5041781;28;20189;-74
2024/02/08 09:50:43;;;;;;;17.47;6.20;;;;;;;;;;5043526;28;20186;-74
2024/02/08 09:53:18;;;;;;;17.57;5.20;;;;;;;;;;5033661;28;20190;-74
2024/02/08 09:55:55;;;;;;;15.43;5.30;;;;;;;;;;5038785;28;20327;-74
2024/02/08 09:58:33;;;;;;;19.50;5.20;;;;;;;;;;5036482;28;20216;-74
2024/02/08 10:01:00;;;;;;;22.10;5.13;;;;;;;;;;5032156;28;20202;-75
2024/02/08 10:03:34;;;;;;;19.43;5.37;;;;;;;;;;5046853;28;20220;-74
2024/02/08 10:06:13;;;;;;;18.37;5.53;;;;;;;;;;5039974;28;20267;-74
2024/02/08 10:09:08;;;;;;;16.93;5.10;;;;;;;;;;5038796;28;20639;-74
2024/02/08 10:11:43;;;;;;;14.07;5.33;;;;;;;;;;5034344;28;20182;-74
2024/02/08 10:14:25;;;;;;;11.40;4.97;;;;;;;;;;5045570;28;20192;-74
2024/02/08 10:16:58;;;;;;;18.33;5.50;;;;;;;;;;5032620;28;20189;-74
2024/02/08 10:19:48;;;;;;;15.10;5.20;;;;;;;;;;5037165;28;20229;-74
2024/02/08 10:22:17;;;;;;;14.87;5.57;;;;;;;;;;5048544;28;20711;-74
2024/02/08 10:27:22;;;;;;;16.70;5.20;;;;;;;;;;5036741;28;20320;-74
2024/02/08 10:29:56;;;;;;;19.97;5.50;;;;;;;;;;5050289;28;20649;-74
2024/02/08 10:32:27;;;;;;;17.43;5.53;;;;;;;;;;5051946;28;20191;-74
2024/02/08 10:35:15;;;;;;;16.27;6.20;;;;;;;;;;5034746;28;20197;-74
2024/02/08 10:37:47;;;;;;;16.13;6.47;;;;;;;;;;5043404;28;20265;-73
2024/02/08 10:40:29;;;;;;;17.07;5.97;;;;;;;;;;5038647;28;20288;-73
2024/02/08 10:42:59;;;;;;;15.63;6.00;;;;;;;;;;5030227;28;20217;-73
2024/02/08 10:45:25;;;;;;;15.90;6.20;;;;;;;;;;5030797;28;20190;-73
2024/02/08 10:47:59;;;;;;;24.07;6.50;;;;;;;;;;5012815;28;20660;-73
2024/02/08 10:50:27;;;;;;;15.90;5.67;;;;;;;;;;5039088;28;20626;-73
2024/02/08 10:53:00;;;;;;;16.52;6.40;;;;;;;;;;5043935;28;20213;-73
2024/02/08 10:55:36;;;;;;;19.65;5.97;;;;;;;;;;5047776;28;20568;-73
2024/02/08 11:03:08;;;;;;;21.48;6.88;;;;;;;;;;5039567;28;20216;-73
2024/02/08 11:08:32;;;;;;;18.03;6.23;;;;;;;;;;5030604;28;20293;-74
2024/02/08 11:11:09;;;;;;;15.82;6.90;;;;;;;;;;5034146;28;20201;-73
2024/02/08 11:13:38;;;;;;;24.23;7.37;;;;;;;;;;5038866;28;20194;-73
2024/02/08 11:16:27;;;;;;;18.85;7.00;;;;;;;;;;5036519;28;20658;-73
2024/02/08 11:19:04;;;;;;;25.57;8.07;;;;;;;;;;5065276;28;20624;-73
2024/02/08 11:21:43;;;;;;;18.87;7.47;;;;;;;;;;5046579;28;20396;-73
2024/02/08 11:24:28;;;;;;;22.23;7.60;;;;;;;;;;5044755;28;20210;-73
2024/02/08 11:27:01;;;;;;;25.27;8.57;;;;;;;;;;5050964;28;20286;-73
2024/02/08 11:29:28;;;;;;;31.23;10.17;;;;;;;;;;5041131;28;20523;-73
2024/02/08 11:31:59;;;;;;;25.27;7.90;;;;;;;;;;5034497;28;20271;-73
2024/02/08 11:34:33;;;;;;;26.53;8.07;;;;;;;;;;5052827;28;20186;-73
2024/02/08 11:37:06;;;;;;;22.50;8.50;;;;;;;;;;5041495;28;20202;-73
2024/02/08 11:39:31;;;;;;;24.42;8.85;;;;;;;;;;5055900;28;20200;-73
2024/02/08 11:42:00;;;;;;;28.43;9.20;;;;;;;;;;5043385;28;20197;-73
2024/02/08 11:44:28;;;;;;;19.67;8.25;;;;;;;;;;5045657;28;20190;-74
2024/02/08 11:47:01;;;;;;;21.43;8.90;;;;;;;;;;5044584;28;20669;-75
2024/02/08 11:49:32;;;;;;;33.47;8.63;;;;;;;;;;5045923;28;20191;-73
2024/02/08 11:52:06;;;;;;;27.23;9.05;;;;;;;;;;5047345;28;20729;-73
2024/02/08 11:54:37;;;;;;;25.40;8.90;;;;;;;;;;5040751;28;20526;-73
2024/02/08 11:57:05;;;;;;;28.93;9.60;;;;;;;;;;5051560;28;20260;-72
2024/02/08 11:59:35;;;;;;;24.07;9.30;;;;;;;;;;5050326;28;20193;-73
2024/02/08 12:02:07;;;;;;;22.10;9.43;;;;;;;;;;5046084;28;20497;-73
2024/02/08 12:04:36;;;;;;;28.13;8.77;;;;;;;;;;5056992;28;20209;-73
2024/02/08 12:07:04;;;;;;;27.40;9.13;;;;;;;;;;5043828;28;20303;-73
2024/02/08 12:09:31;;;;;;;23.00;9.53;;;;;;;;;;5057380;28;20178;-74
2024/02/08 12:11:57;;;;;;;23.87;9.07;;;;;;;;;;5019863;28;20190;-73
2024/02/08 12:14:26;;;;;;;25.67;8.43;;;;;;;;;;5054424;28;20204;-73
2024/02/08 12:16:57;;;;;;;20.00;8.20;;;;;;;;;;5058152;28;20247;-72
2024/02/08 12:19:24;;;;;;;29.37;10.20;;;;;;;;;;5044665;28;20300;-73
2024/02/08 12:21:57;;;;;;;23.73;8.27;;;;;;;;;;5044736;28;20642;-73
2024/02/08 12:24:31;;;;;;;27.43;8.90;;;;;;;;;;5050854;28;20261;-73
2024/02/08 12:27:05;;;;;;;20.30;8.70;;;;;;;;;;5042962;28;20239;-73
2024/02/08 12:29:33;;;;;;;26.43;9.23;;;;;;;;;;5035609;28;20205;-73
2024/02/08 12:31:59;;;;;;;23.63;8.23;;;;;;;;;;5021375;28;20290;-73
2024/02/08 12:34:32;;;;;;;28.30;8.53;;;;;;;;;;5036898;28;20256;-73
2024/02/08 12:37:06;;;;;;;22.07;8.63;;;;;;;;;;5038489;28;20216;-73
2024/02/08 12:39:49;;;;;;;25.50;8.53;;;;;;;;;;5034770;28;20196;-72
2024/02/08 12:42:15;;;;;;;24.80;8.00;;;;;;;;;;5037750;28;20190;-72
2024/02/08 12:44:48;;;;;;;19.80;8.03;;;;;;;;;;5006610;28;20932;-72
2024/02/08 12:47:17;;;;;;;21.23;7.73;;;;;;;;;;5042168;28;20263;-73
2024/02/08 12:49:45;;;;;;;15.53;6.13;;;;;;;;;;5024829;28;20610;-74
2024/02/08 12:52:13;;;;;;;13.03;5.63;;;;;;;;;;5022133;28;20544;-76
2024/02/08 12:54:39;;;;;;;14.77;5.23;;;;;;;;;;5035051;28;20208;-75
2024/02/08 12:57:08;;;;;;;20.00;6.30;;;;;;;;;;5022344;28;20202;-75
2024/02/08 12:59:35;;;;;;;17.80;5.27;;;;;;;;;;5015234;28;20181;-75
2024/02/08 13:02:08;;;;;;;12.40;3.90;;;;;;;;;;5039553;28;20286;-75
2024/02/08 13:04:36;;;;;;;15.30;4.50;;;;;;;;;;5029629;28;20182;-75
2024/02/08 13:07:04;;;;;;;14.17;5.50;;;;;;;;;;5047667;28;20193;-75
2024/02/08 13:09:35;;;;;;;19.50;6.07;;;;;;;;;;5046361;28;20552;-75
2024/02/08 13:12:20;;;;;;;14.70;5.70;;;;;;;;;;5040242;28;20197;-75
2024/02/08 13:14:48;;;;;;;13.80;5.20;;;;;;;;;;5035252;28;20590;-76
2024/02/08 13:17:18;;;;;;;16.27;5.60;;;;;;;;;;5029172;28;20229;-75
2024/02/08 13:19:49;;;;;;;12.57;5.23;;;;;;;;;;5022565;28;20225;-76
2024/02/08 13:22:20;;;;;;;13.57;5.20;;;;;;;;;;5022565;28;20182;-76
2024/02/08 13:24:48;;;;;;;13.50;5.10;;;;;;;;;;5032793;28;20268;-76
2024/02/08 13:27:18;;;;;;;13.63;4.50;;;;;;;;;;5028198;28;20190;-76
2024/02/08 13:29:44;;;;;;;12.53;4.33;;;;;;;;;;5023885;28;20252;-76
2024/02/08 13:32:10;;;;;;;13.33;5.43;;;;;;;;;;5024322;28;20190;-76
2024/02/08 13:34:35;;;;;;;14.20;5.47;;;;;;;;;;5044757;28;20182;-76
2024/02/08 13:37:00;;;;;;;11.93;5.10;;;;;;;;;;5016898;28;20226;-76
2024/02/08 13:39:26;;;;;;;17.17;4.70;;;;;;;;;;5031120;28;20186;-76
2024/02/08 13:41:52;;;;;;;13.53;5.47;;;;;;;;;;5027338;28;20190;-76
2024/02/08 13:44:20;;;;;;;9.93;4.80;;;;;;;;;;5012414;28;20186;-76
2024/02/08 13:46:48;;;;;;;9.97;4.27;;;;;;;;;;5030735;28;20263;-75
2024/02/08 13:49:15;;;;;;;11.13;5.00;;;;;;;;;;4996773;28;20238;-76
2024/02/08 13:51:44;;;;;;;11.87;4.17;;;;;;;;;;5040237;28;20190;-75
2024/02/08 13:54:12;;;;;;;11.53;4.20;;;;;;;;;;5019067;28;20265;-76
2024/02/08 13:56:38;;;;;;;13.37;3.90;;;;;;;;;;5027023;28;20526;-76
2024/02/08 13:59:04;;;;;;;10.47;3.60;;;;;;;;;;5036130;28;20182;-75
2024/02/08 14:01:32;;;;;;;11.20;3.93;;;;;;;;;;5029580;28;20193;-75
2024/02/08 14:03:58;;;;;;;11.80;3.37;;;;;;;;;;5025899;28;20647;-77
2024/02/08 14:06:25;;;;;;;9.80;3.97;;;;;;;;;;5033104;28;20190;-76
2024/02/08 14:08:54;;;;;;;6.90;3.80;;;;;;;;;;5035757;28;20250;-75
2024/02/08 14:11:25;;;;;;;14.53;3.57;;;;;;;;;;5024723;28;20250;-75
2024/02/08 14:13:51;;;;;;;9.90;3.40;;;;;;;;;;5030325;28;20201;-75
2024/02/08 14:16:20;;;;;;;11.73;3.97;;;;;;;;;;5026220;28;20187;-75
2024/02/08 14:18:49;;;;;;;13.27;3.33;;;;;;;;;;5027158;28;20693;-76
2024/02/08 14:21:27;;;;;;;8.23;3.40;;;;;;;;;;5026866;28;20590;-77
2024/02/08 14:23:59;;;;;;;5.37;3.23;;;;;;;;;;5029582;28;20194;-77
2024/02/08 14:26:33;;;;;;;10.13;3.33;;;;;;;;;;5037817;28;20720;-77
2024/02/08 14:28:59;;;;;;;9.53;3.40;;;;;;;;;;5020542;28;20185;-75
2024/02/08 14:31:25;;;;;;;12.10;3.77;;;;;;;;;;5025155;28;20529;-77
2024/02/08 14:33:51;;;;;;;9.87;3.13;;;;;;;;;;5036758;28;20227;-75
2024/02/08 14:36:18;;;;;;;12.33;3.40;;;;;;;;;;5004141;28;20185;-75
2024/02/08 14:38:45;;;;;;;10.33;3.10;;;;;;;;;;5016857;28;20623;-74
2024/02/08 14:41:32;;;;;;;6.47;2.40;;;;;;;;;;5038260;28;20598;-76
2024/02/08 14:44:08;;;;;;;13.37;2.50;;;;;;;;;;5029045;28;20198;-76
2024/02/08 14:46:39;;;;;;;10.10;2.63;;;;;;;;;;5018635;28;20183;-75
2024/02/08 14:49:17;;;;;;;5.67;2.33;;;;;;;;;;5036260;28;20201;-75
2024/02/08 14:51:47;;;;;;;6.27;2.60;;;;;;;;;;5003213;28;20190;-75
2024/02/08 14:54:13;;;;;;;4.67;2.37;;;;;;;;;;5008274;28;20284;-75
2024/02/08 14:56:41;;;;;;;6.90;2.57;;;;;;;;;;5024994;28;20277;-75
2024/02/08 15:01:52;;;;;;;5.57;2.53;;;;;;;;;;5032585;28;20292;-75
2024/02/08 15:04:21;;;;;;;9.50;2.70;;;;;;;;;;5031906;28;20277;-76
2024/02/08 15:12:13;;;;;;;5.63;2.53;;;;;;;;;;5027306;28;20216;-75
2024/02/08 15:14:42;;;;;;;4.97;2.50;;;;;;;;;;5025342;28;20233;-75
2024/02/08 15:17:08;;;;;;;7.77;3.10;;;;;;;;;;5026025;28;20241;-75
2024/02/08 15:19:47;;;;;;;10.67;3.20;;;;;;;;;;5025464;28;20232;-75
2024/02/08 15:23:09;;;;;;;9.83;2.90;;;;;;;;;;5029512;28;20220;-75
2024/02/08 15:25:06;;;;;;;6.33;2.77;;;;;;;;;;5036855;28;20562;-75
2024/02/08 15:27:52;;;;;;;5.43;2.73;;;;;;;;;;5015247;28;20524;-75
2024/02/08 15:30:22;;;;;;;5.93;2.60;;;;;;;;;;5014792;28;20190;-75
2024/02/08 15:35:26;;;;;;;7.43;2.87;;;;;;;;;;5028570;28;20198;-75
2024/02/08 15:38:55;;;;;;;7.60;2.73;;;;;;;;;;5021396;28;20252;-75
2024/02/08 15:40:45;;;;;;;8.00;3.27;;;;;;;;;;5021795;28;20288;-75
2024/02/08 15:43:15;;;;;;;6.87;3.00;;;;;;;;;;5013437;28;20198;-75
2024/02/08 15:45:44;;;;;;;4.30;2.70;;;;;;;;;;5030371;28;20319;-76
2024/02/08 15:48:14;;;;;;;6.80;3.60;;;;;;;;;;5029024;28;20185;-75
2024/02/08 15:50:42;;;;;;;5.13;3.53;;;;;;;;;;5033864;28;20616;-76
2024/02/08 15:53:20;;;;;;;6.60;3.43;;;;;;;;;;5036397;28;20273;-75
2024/02/08 15:55:49;;;;;;;7.67;3.70;;;;;;;;;;5018715;28;20655;-75
2024/02/08 15:58:25;;;;;;;6.73;4.30;;;;;;;;;;5022911;28;20252;-76
2024/02/08 16:01:12;;;;;;;9.87;4.23;;;;;;;;;;5017804;28;20197;-75
2024/02/08 16:03:52;;;;;;;10.47;4.27;;;;;;;;;;5024326;28;20221;-76
2024/02/08 16:09:07;;;;;;;11.53;4.60;;;;;;;;;;5024588;28;20235;-75
2024/02/08 16:11:34;;;;;;;8.47;4.80;;;;;;;;;;5020401;28;20331;-76
2024/02/08 16:14:04;;;;;;;11.80;5.00;;;;;;;;;;5024279;28;20190;-75
2024/02/08 16:16:34;;;;;;;9.80;5.27;;;;;;;;;;5036503;28;20289;-75
2024/02/08 16:19:20;;;;;;;11.73;5.93;;;;;;;;;;5037184;28;20769;-76
2024/02/08 16:21:45;;;;;;;11.27;4.97;;;;;;;;;;5033847;28;20278;-75
2024/02/08 16:24:17;;;;;;;8.90;4.70;;;;;;;;;;5013911;28;20696;-74
2024/02/08 16:26:56;;;;;;;7.60;4.53;;;;;;;;;;5028608;28;20208;-75
2024/02/08 16:29:33;;;;;;;9.10;4.23;;;;;;;;;;5038497;28;20188;-77
2024/02/08 16:32:06;;;;;;;9.43;4.40;;;;;;;;;;5004407;28;20193;-75
2024/02/08 16:34:46;;;;;;;7.80;3.93;;;;;;;;;;5020624;28;20922;-74
2024/02/08 16:37:30;;;;;;;5.60;3.73;;;;;;;;;;5026015;28;20584;-74
2024/02/08 16:40:07;;;;;;;7.70;4.00;;;;;;;;;;4998112;28;20633;-76
2024/02/08 16:42:35;;;;;;;6.60;3.87;;;;;;;;;;5010282;28;20264;-74
2024/02/08 16:45:17;;;;;;;4.73;3.50;;;;;;;;;;5036706;28;20216;-77
2024/02/08 16:47:52;;;;;;;5.97;3.67;;;;;;;;;;5026990;28;20210;-75
2024/02/08 16:50:34;;;;;;;5.80;4.00;;;;;;;;;;5031677;28;20263;-75
2024/02/08 16:53:03;;;;;;;7.90;3.93;;;;;;;;;;5021724;28;20534;-76
2024/02/08 16:55:45;;;;;;;6.60;4.17;;;;;;;;;;5032560;28;20207;-75
2024/02/08 16:58:17;;;;;;;5.53;3.90;;;;;;;;;;5030511;28;20209;-75
2024/02/08 17:00:48;;;;;;;8.53;4.60;;;;;;;;;;5037008;28;20265;-74
2024/02/08 17:06:11;;;;;;;6.47;3.97;;;;;;;;;;5037941;28;20197;-74
2024/02/08 17:11:31;;;;;;;6.37;4.53;;;;;;;;;;5031216;28;20194;-75